createdAt,value
2023-02-03T00:03:43.514Z,7.00
2023-02-03T00:14:31.032Z,8.00
2023-02-03T00:25:24.870Z,6.60
2023-02-03T00:36:09.062Z,6.10
2023-02-03T00:47:02.635Z,7.20
2023-02-03T00:58:11.250Z,7.20
2023-02-03T01:09:06.342Z,6.80
2023-02-03T01:20:11.524Z,5.90
2023-02-03T01:31:30.073Z,5.70
2023-02-03T01:42:14.690Z,7.00
2023-02-03T01:52:54.536Z,7.40
2023-02-03T02:03:44.990Z,6.60
2023-02-03T02:14:44.363Z,6.30
2023-02-03T02:25:31.545Z,5.20
2023-02-03T02:36:54.742Z,5.10
2023-02-03T02:48:04.458Z,5.90
2023-02-03T02:58:56.442Z,6.30
2023-02-03T03:09:17.712Z,6.40
2023-02-03T03:20:26.220Z,6.70
2023-02-03T03:31:41.036Z,5.80
2023-02-03T03:42:38.272Z,5.40
2023-02-03T03:53:22.167Z,5.20
2023-02-03T04:04:21.030Z,5.50
2023-02-03T04:15:11.389Z,5.60
2023-02-03T04:25:55.965Z,4.20
2023-02-03T04:36:25.688Z,4.30
2023-02-03T04:47:12.343Z,5.30
2023-02-03T04:58:11.933Z,7.70
2023-02-03T05:09:14.608Z,4.60
2023-02-03T05:19:38.935Z,4.70
2023-02-03T05:30:14.795Z,6.30
2023-02-03T05:40:57.408Z,8.50
2023-02-03T05:51:31.235Z,7.70
2023-02-03T06:02:27.154Z,7.60
2023-02-03T06:13:05.850Z,12.10
2023-02-03T06:23:53.159Z,11.50
2023-02-03T06:35:00.425Z,11.90
2023-02-03T06:45:37.874Z,15.80
2023-02-03T06:56:13.918Z,8.80
2023-02-03T07:06:52.994Z,12.90
2023-02-03T07:17:29.472Z,7.50
2023-02-03T07:28:14.196Z,4.60
2023-02-03T07:38:25.421Z,5.50
2023-02-03T07:49:18.651Z,5.70
2023-02-03T07:59:32.981Z,5.00
2023-02-03T08:09:37.101Z,5.10
2023-02-03T08:19:44.329Z,6.00
2023-02-03T08:30:08.072Z,5.30
2023-02-03T08:40:27.961Z,5.30
2023-02-03T08:50:37.595Z,5.30
2023-02-03T09:00:53.972Z,7.80
2023-02-03T09:11:26.692Z,4.90
2023-02-03T09:21:44.072Z,4.90
2023-02-03T09:32:07.508Z,7.90
2023-02-03T09:42:51.453Z,4.90
2023-02-03T09:53:31.221Z,4.90
2023-02-03T10:04:28.503Z,5.70
2023-02-03T10:15:54.153Z,5.80
2023-02-03T10:26:32.758Z,2.70
2023-02-03T10:37:03.551Z,2.20
2023-02-03T10:48:03.145Z,2.40
2023-02-03T11:08:35.080Z,2.80
2023-02-03T11:19:28.557Z,2.60
2023-02-03T11:30:18.509Z,2.20
2023-02-03T11:40:59.613Z,2.50
2023-02-03T12:03:15.821Z,2.30
2023-02-03T12:14:29.603Z,2.20
2023-02-03T12:26:06.250Z,2.50
2023-02-03T12:37:02.070Z,3.30
2023-02-03T12:47:52.115Z,2.60
2023-02-03T12:58:42.764Z,2.50
2023-02-03T13:09:44.700Z,2.50
2023-02-03T13:20:36.397Z,2.30
2023-02-03T13:31:40.729Z,2.90
2023-02-03T13:42:59.716Z,2.80
2023-02-03T13:53:53.265Z,3.10
2023-02-03T14:05:03.357Z,2.10
2023-02-03T14:15:28.722Z,2.10
2023-02-03T14:25:59.622Z,3.50
2023-02-03T14:36:31.431Z,2.10
2023-02-03T14:46:59.199Z,2.20
2023-02-03T14:57:30.874Z,1.90
2023-02-03T15:07:47.937Z,5.10
2023-02-03T15:18:19.868Z,3.30
2023-02-03T15:28:29.534Z,4.60
2023-02-03T15:38:42.428Z,4.00
2023-02-03T15:49:04.411Z,3.90
2023-02-03T15:59:30.432Z,4.60
2023-02-03T16:09:45.563Z,3.80
2023-02-03T16:20:34.308Z,5.00
2023-02-03T16:31:23.140Z,5.80
2023-02-03T16:41:45.844Z,8.40
2023-02-03T16:51:50.126Z,6.20
2023-02-03T17:01:54.288Z,7.20
2023-02-03T17:11:58.567Z,8.60
2023-02-03T17:22:02.715Z,8.60
2023-02-03T17:32:07.363Z,6.00
2023-02-03T18:02:55.489Z,10.20
2023-02-03T18:13:01.341Z,8.60
2023-02-03T18:23:05.609Z,6.50
2023-02-03T18:33:12.572Z,5.80
2023-02-03T18:43:19.246Z,3.90
2023-02-03T18:53:26.076Z,7.00
2023-02-03T19:03:32.336Z,7.30
2023-02-03T19:13:37.707Z,5.70
2023-02-03T19:23:56.309Z,5.40
2023-02-03T19:44:15.713Z,6.30
2023-02-03T19:54:26.540Z,5.80
2023-02-03T20:04:37.339Z,5.20
2023-02-03T20:14:48.981Z,4.60
2023-02-03T20:24:56.785Z,5.00
2023-02-03T20:35:07.416Z,5.20
2023-02-03T20:45:25.712Z,5.00
2023-02-03T20:55:32.793Z,4.60
2023-02-03T21:05:45.503Z,4.00
2023-02-03T21:16:06.306Z,3.60
2023-02-03T21:26:32.361Z,2.20
2023-02-03T21:36:39.391Z,2.60
2023-02-03T21:46:48.148Z,3.60
2023-02-03T21:56:55.517Z,4.00
2023-02-03T22:07:02.995Z,3.20
2023-02-03T22:17:08.290Z,2.90
2023-02-03T22:27:13.086Z,2.90
2023-02-03T22:37:17.075Z,2.90
2023-02-03T22:47:22.323Z,3.10
2023-02-03T22:57:26.290Z,2.60
2023-02-03T23:07:30.276Z,2.70
2023-02-03T23:17:37.114Z,3.30
2023-02-03T23:27:41.129Z,4.40
2023-02-03T23:37:45.823Z,3.00
2023-02-03T23:47:49.985Z,2.60
2023-02-03T23:58:16.123Z,3.20
